createdAt,value
2019-01-04T00:01:24.686Z,18.60
2019-01-04T00:03:52.905Z,17.70
2019-01-04T00:06:21.174Z,16.33
2019-01-04T00:08:49.394Z,17.20
2019-01-04T00:11:17.662Z,18.90
2019-01-04T00:13:45.881Z,18.00
2019-01-04T00:16:14.165Z,18.73
2019-01-04T00:18:42.449Z,19.50
2019-01-04T00:21:10.717Z,18.03
2019-01-04T00:23:38.937Z,19.23
2019-01-04T00:26:07.198Z,17.63
2019-01-04T00:28:35.498Z,18.27
2019-01-04T00:31:04.162Z,18.00
2019-01-04T00:33:32.463Z,17.73
2019-01-04T00:36:00.731Z,17.97
2019-01-04T00:38:29.026Z,19.37
2019-01-04T00:40:57.304Z,18.90
2019-01-04T00:43:25.565Z,18.50
2019-01-04T00:45:53.926Z,17.00
2019-01-04T00:48:22.193Z,18.97
2019-01-04T00:50:50.410Z,18.10
2019-01-04T00:53:18.673Z,19.40
2019-01-04T00:55:54.370Z,19.87
2019-01-04T00:58:29.777Z,17.93
2019-01-04T01:01:08.383Z,17.57
2019-01-04T01:03:40.882Z,16.53
2019-01-04T01:06:16.381Z,18.00
2019-01-04T01:09:02.769Z,18.80
2019-01-04T01:11:36.623Z,16.53
2019-01-04T01:14:22.977Z,18.37
2019-01-04T01:17:04.586Z,20.33
2019-01-04T01:19:40.525Z,19.03
2019-01-04T01:22:28.437Z,17.97
2019-01-04T01:24:58.182Z,19.20
2019-01-04T01:27:44.538Z,18.83
2019-01-04T01:30:30.886Z,16.93
2019-01-04T01:33:12.456Z,18.17
2019-01-04T01:35:54.098Z,17.13
2019-01-04T01:38:32.891Z,16.73
2019-01-04T01:41:05.821Z,18.83
2019-01-04T01:43:53.717Z,17.70
2019-01-04T01:46:23.510Z,17.97
2019-01-04T01:48:53.318Z,19.20
2019-01-04T01:51:25.867Z,16.90
2019-01-04T01:53:54.085Z,16.03
2019-01-04T01:56:22.282Z,17.17
2019-01-04T01:58:50.571Z,16.90
2019-01-04T02:01:18.842Z,17.73
2019-01-04T02:03:47.133Z,17.70
2019-01-04T02:06:15.331Z,18.90
2019-01-04T02:08:43.624Z,17.47
2019-01-04T02:11:11.962Z,17.20
2019-01-04T02:13:40.182Z,18.70
2019-01-04T02:16:08.381Z,17.37
2019-01-04T02:18:36.601Z,16.13
2019-01-04T02:21:04.801Z,18.00
2019-01-04T02:23:33.022Z,18.00
2019-01-04T02:26:01.222Z,18.17
2019-01-04T02:28:29.516Z,18.10
2019-01-04T02:30:57.780Z,18.00
2019-01-04T02:33:26.070Z,18.40
2019-01-04T02:35:54.330Z,18.90
2019-01-04T02:38:22.546Z,18.00
2019-01-04T02:40:50.746Z,16.97
2019-01-04T02:43:19.037Z,18.13
2019-01-04T02:45:47.299Z,17.70
2019-01-04T02:48:15.602Z,18.53
2019-01-04T02:50:43.870Z,18.67
2019-01-04T02:53:12.095Z,18.33
2019-01-04T02:55:40.361Z,19.43
2019-01-04T02:58:08.590Z,18.93
2019-01-04T03:00:36.870Z,18.33
2019-01-04T03:03:05.166Z,19.53
2019-01-04T03:05:33.445Z,18.80
2019-01-04T03:08:01.702Z,17.07
2019-01-04T03:10:29.997Z,17.00
2019-01-04T03:12:58.263Z,18.10
2019-01-04T03:15:26.473Z,15.93
2019-01-04T03:17:54.688Z,16.40
2019-01-04T03:20:22.978Z,16.40
2019-01-04T03:22:51.172Z,16.33
2019-01-04T03:25:19.459Z,13.83
2019-01-04T03:27:47.727Z,15.20
2019-01-04T03:30:16.043Z,15.87
2019-01-04T03:32:44.314Z,15.17
2019-01-04T03:35:12.615Z,13.93
2019-01-04T03:37:40.873Z,15.47
2019-01-04T03:40:09.561Z,13.00
2019-01-04T03:42:37.773Z,15.30
2019-01-04T03:45:06.257Z,13.63
2019-01-04T03:47:34.538Z,13.90
2019-01-04T03:50:02.940Z,12.80
2019-01-04T03:52:31.166Z,13.33
2019-01-04T03:54:59.388Z,12.53
2019-01-04T03:57:27.647Z,12.10
2019-01-04T03:59:55.934Z,12.83
2019-01-04T04:02:24.129Z,14.83
2019-01-04T04:04:52.346Z,12.63
2019-01-04T04:07:20.622Z,13.20
2019-01-04T04:09:48.835Z,12.83
2019-01-04T04:12:17.101Z,13.47
2019-01-04T04:14:45.398Z,14.37
2019-01-04T04:17:13.699Z,13.00
2019-01-04T04:19:41.962Z,13.53
2019-01-04T04:22:10.230Z,13.30
2019-01-04T04:24:38.526Z,13.60
2019-01-04T04:27:06.802Z,12.77
2019-01-04T04:29:35.070Z,14.60
2019-01-04T04:32:03.285Z,14.77
2019-01-04T04:34:31.474Z,13.10
2019-01-04T04:36:59.780Z,14.23
2019-01-04T04:39:28.263Z,12.80
2019-01-04T04:41:56.555Z,12.40
2019-01-04T04:44:24.746Z,14.40
2019-01-04T04:46:53.038Z,14.70
2019-01-04T04:49:21.235Z,14.80
2019-01-04T04:51:49.602Z,14.23
2019-01-04T04:54:17.798Z,13.13
2019-01-04T04:56:46.099Z,15.20
2019-01-04T04:59:14.378Z,13.57
2019-01-04T05:01:42.662Z,13.23
2019-01-04T05:04:10.858Z,14.10
2019-01-04T05:06:39.077Z,13.57
2019-01-04T05:09:07.274Z,13.70
2019-01-04T05:11:35.566Z,14.33
2019-01-04T05:14:03.834Z,15.27
2019-01-04T05:16:32.133Z,15.00
2019-01-04T05:19:00.342Z,15.07
2019-01-04T05:21:28.637Z,16.13
2019-01-04T05:23:56.942Z,16.87
2019-01-04T05:26:25.244Z,15.03
2019-01-04T05:28:53.512Z,17.23
2019-01-04T05:31:21.806Z,14.97
2019-01-04T05:33:50.081Z,14.73
2019-01-04T05:36:18.358Z,16.97
2019-01-04T05:38:46.633Z,16.27
2019-01-04T05:41:14.921Z,14.80
2019-01-04T05:43:43.117Z,14.37
2019-01-04T05:46:11.323Z,14.67
2019-01-04T05:48:39.617Z,15.00
2019-01-04T05:51:07.847Z,15.27
2019-01-04T05:53:36.110Z,15.97
2019-01-04T05:56:04.325Z,15.60
2019-01-04T05:58:32.598Z,15.60
2019-01-04T06:01:00.816Z,15.00
2019-01-04T06:03:29.089Z,15.20
2019-01-04T06:05:57.281Z,16.47
2019-01-04T06:08:25.503Z,17.10
2019-01-04T06:10:53.770Z,15.57
2019-01-04T06:13:22.065Z,16.10
2019-01-04T06:15:50.263Z,15.10
2019-01-04T06:18:18.493Z,14.83
2019-01-04T06:20:46.763Z,15.67
2019-01-04T06:23:16.082Z,15.93
2019-01-04T06:25:44.285Z,16.27
2019-01-04T06:28:12.566Z,15.77
2019-01-04T06:30:40.765Z,15.43
2019-01-04T06:33:08.988Z,14.53
2019-01-04T06:35:37.263Z,14.43
2019-01-04T06:38:05.550Z,14.13
2019-01-04T06:40:33.743Z,14.57
2019-01-04T06:43:02.030Z,15.03
2019-01-04T06:45:30.299Z,15.30
2019-01-04T06:47:58.590Z,15.30
2019-01-04T06:50:26.790Z,14.00
2019-01-04T06:52:55.003Z,15.40
2019-01-04T06:55:39.802Z,14.90
2019-01-04T06:58:08.075Z,14.60
2019-01-04T07:00:36.290Z,14.77
2019-01-04T07:03:04.510Z,15.57
2019-01-04T07:05:32.775Z,16.00
2019-01-04T07:08:01.073Z,15.23
2019-01-04T07:10:29.353Z,15.70
2019-01-04T07:12:57.574Z,16.00
2019-01-04T07:15:25.834Z,14.80
2019-01-04T07:17:54.054Z,15.47
2019-01-04T07:20:22.327Z,14.10
2019-01-04T07:22:50.594Z,15.33
2019-01-04T07:25:18.889Z,14.00
2019-01-04T07:27:47.086Z,14.00
2019-01-04T07:30:15.310Z,14.40
2019-01-04T07:32:43.605Z,14.03
2019-01-04T07:35:11.821Z,15.97
2019-01-04T07:37:40.095Z,15.90
2019-01-04T07:40:09.193Z,15.73
2019-01-04T07:42:37.429Z,16.33
2019-01-04T07:45:06.994Z,15.77
2019-01-04T07:47:35.257Z,15.77
2019-01-04T07:50:03.749Z,16.03
2019-01-04T07:52:32.014Z,16.50
2019-01-04T07:55:00.237Z,16.17
2019-01-04T07:57:28.429Z,15.87
2019-01-04T07:59:56.695Z,17.50
2019-01-04T08:02:32.558Z,15.50
2019-01-04T08:05:00.844Z,16.03
2019-01-04T08:07:29.110Z,15.57
2019-01-04T08:09:57.343Z,15.93
2019-01-04T08:12:25.609Z,15.97
2019-01-04T08:14:53.914Z,16.90
2019-01-04T08:17:22.114Z,15.20
2019-01-04T08:19:50.406Z,15.87
2019-01-04T08:22:18.666Z,14.97
2019-01-04T08:24:46.893Z,16.57
2019-01-04T08:27:15.162Z,16.40
2019-01-04T08:29:43.377Z,15.90
2019-01-04T08:32:11.570Z,17.60
2019-01-04T08:34:39.795Z,15.67
2019-01-04T08:37:08.322Z,16.30
2019-01-04T08:39:36.609Z,15.47
2019-01-04T08:42:04.889Z,16.77
2019-01-04T08:44:33.180Z,16.00
2019-01-04T08:47:01.459Z,16.37
2019-01-04T08:49:29.661Z,16.10
2019-01-04T08:51:57.954Z,14.97
2019-01-04T08:54:26.234Z,15.47
2019-01-04T08:56:54.586Z,16.60
2019-01-04T08:59:22.830Z,16.03
2019-01-04T09:01:51.129Z,15.70
2019-01-04T09:04:19.394Z,17.00
2019-01-04T09:06:47.691Z,16.10
2019-01-04T09:09:15.949Z,15.10
2019-01-04T09:11:44.170Z,15.70
2019-01-04T09:14:12.366Z,16.90
2019-01-04T09:16:40.582Z,16.83
2019-01-04T09:19:08.850Z,15.23
2019-01-04T09:21:37.066Z,15.57
2019-01-04T09:24:05.330Z,15.13
2019-01-04T09:26:33.626Z,15.73
2019-01-04T09:29:01.814Z,14.67
2019-01-04T09:31:30.030Z,17.70
2019-01-04T09:33:58.233Z,16.30
2019-01-04T09:36:26.522Z,15.27
2019-01-04T09:38:54.710Z,14.00
2019-01-04T09:41:24.466Z,15.10
2019-01-04T09:43:52.741Z,14.60
2019-01-04T09:46:21.005Z,15.20
2019-01-04T09:48:49.230Z,15.30
2019-01-04T09:51:17.426Z,14.13
2019-01-04T09:53:45.723Z,15.20
2019-01-04T09:56:13.978Z,14.43
2019-01-04T09:58:42.189Z,14.73
2019-01-04T10:01:10.382Z,15.00
2019-01-04T10:03:38.673Z,15.77
2019-01-04T10:06:07.939Z,13.87
2019-01-04T10:08:36.242Z,14.30
2019-01-04T10:11:04.518Z,13.47
2019-01-04T10:13:32.740Z,14.03
2019-01-04T10:16:01.002Z,13.70
2019-01-04T10:18:31.341Z,13.50
2019-01-04T10:20:59.598Z,13.10
2019-01-04T10:23:27.822Z,13.53
2019-01-04T10:25:56.013Z,13.47
2019-01-04T10:28:24.567Z,14.03
2019-01-04T10:30:52.830Z,12.93
2019-01-04T10:33:21.042Z,13.57
2019-01-04T10:35:49.503Z,12.90
2019-01-04T10:38:17.794Z,13.30
2019-01-04T10:40:46.058Z,14.13
2019-01-04T10:43:14.278Z,13.80
2019-01-04T10:45:42.553Z,13.97
2019-01-04T10:48:10.837Z,14.10
2019-01-04T10:50:39.041Z,12.50
2019-01-04T10:53:07.338Z,12.63
2019-01-04T10:55:35.594Z,13.20
2019-01-04T10:58:03.889Z,13.30
2019-01-04T11:00:32.157Z,12.17
2019-01-04T11:03:01.982Z,13.07
2019-01-04T11:05:30.198Z,12.23
2019-01-04T11:07:58.483Z,12.97
2019-01-04T11:10:26.670Z,12.47
2019-01-04T11:12:54.871Z,14.00
2019-01-04T11:15:23.225Z,12.33
2019-01-04T11:17:51.418Z,12.87
2019-01-04T11:20:32.997Z,13.00
2019-01-04T11:23:02.414Z,12.93
2019-01-04T11:25:34.949Z,12.43
2019-01-04T11:28:07.398Z,12.63
2019-01-04T11:30:37.222Z,13.90
2019-01-04T11:33:05.491Z,13.57
2019-01-04T11:35:35.314Z,13.23
2019-01-04T11:38:05.047Z,14.90
2019-01-04T11:40:37.626Z,11.97
2019-01-04T11:43:07.443Z,13.63
2019-01-04T11:45:46.314Z,12.90
2019-01-04T11:48:16.135Z,12.93
2019-01-04T11:50:55.050Z,10.00
2019-01-04T11:53:23.318Z,10.20
2019-01-04T11:55:51.530Z,10.40
2019-01-04T11:58:19.722Z,9.10
2019-01-04T12:00:47.934Z,10.00
2019-01-04T12:03:16.130Z,9.20
2019-01-04T12:05:44.419Z,9.97
2019-01-04T12:08:12.681Z,11.10
2019-01-04T12:10:43.864Z,11.73
2019-01-04T12:13:12.270Z,9.50
2019-01-04T12:15:42.190Z,10.73
2019-01-04T12:18:10.390Z,11.47
2019-01-04T12:20:38.678Z,11.50
2019-01-04T12:23:11.124Z,10.93
2019-01-04T12:25:36.879Z,10.37
2019-01-04T12:28:05.142Z,11.53
2019-01-04T12:30:33.334Z,11.20
2019-01-04T12:33:01.546Z,9.37
2019-01-04T12:35:29.738Z,9.63
2019-01-04T12:37:57.965Z,10.60
2019-01-04T12:40:26.162Z,11.10
2019-01-04T12:42:54.446Z,8.87
2019-01-04T12:45:22.719Z,10.73
2019-01-04T12:47:51.014Z,10.43
2019-01-04T12:50:19.270Z,10.23
2019-01-04T12:52:47.488Z,10.30
2019-01-04T12:55:15.755Z,10.00
2019-01-04T12:57:44.018Z,9.30
2019-01-04T13:00:12.690Z,10.27
2019-01-04T13:02:40.957Z,8.37
2019-01-04T13:05:09.243Z,10.23
2019-01-04T13:07:37.446Z,11.00
2019-01-04T13:10:06.130Z,10.47
2019-01-04T13:12:34.396Z,10.10
2019-01-04T13:15:02.757Z,10.03
2019-01-04T13:17:31.017Z,10.90
2019-01-04T13:19:59.278Z,10.67
2019-01-04T13:22:27.541Z,10.87
2019-01-04T13:24:55.730Z,11.90
2019-01-04T13:27:24.021Z,10.63
2019-01-04T13:29:52.218Z,11.00
2019-01-04T13:32:20.446Z,11.20
2019-01-04T13:34:50.718Z,11.90
2019-01-04T13:37:18.980Z,10.90
2019-01-04T13:39:47.500Z,10.93
2019-01-04T13:42:15.789Z,10.07
2019-01-04T13:44:44.130Z,12.03
2019-01-04T13:47:12.345Z,11.60
2019-01-04T13:49:40.541Z,11.83
2019-01-04T13:52:08.733Z,11.10
2019-01-04T13:54:37.045Z,10.67
2019-01-04T13:57:05.442Z,10.07
2019-01-04T13:59:33.726Z,11.30
2019-01-04T14:02:01.930Z,11.93
2019-01-04T14:04:30.287Z,10.20
2019-01-04T14:06:58.554Z,11.13
2019-01-04T14:09:26.850Z,10.07
2019-01-04T14:11:55.049Z,11.50
2019-01-04T14:14:23.265Z,10.47
2019-01-04T14:16:51.466Z,9.03
2019-01-04T14:19:19.762Z,10.50
2019-01-04T14:21:48.037Z,10.07
2019-01-04T14:24:16.322Z,9.03
2019-01-04T14:26:45.437Z,10.70
2019-01-04T14:29:13.654Z,11.10
2019-01-04T14:31:41.923Z,10.50
2019-01-04T14:34:10.273Z,9.77
2019-01-04T14:36:38.465Z,10.20
2019-01-04T14:39:06.930Z,11.70
2019-01-04T14:41:35.198Z,12.60
2019-01-04T14:44:03.415Z,25.70
2019-01-04T14:46:31.602Z,7.77
2019-01-04T14:48:59.838Z,9.30
2019-01-04T14:51:28.030Z,8.00
2019-01-04T14:53:56.317Z,9.87
2019-01-04T14:56:24.507Z,8.80
2019-01-04T14:58:52.736Z,10.03
2019-01-04T15:01:21.001Z,9.73
2019-01-04T15:03:49.195Z,10.73
2019-01-04T15:06:17.486Z,10.57
2019-01-04T15:08:45.760Z,10.00
2019-01-04T15:11:14.047Z,10.23
2019-01-04T15:13:42.315Z,11.67
2019-01-04T15:16:10.527Z,9.77
2019-01-04T15:18:38.797Z,9.80
2019-01-04T15:21:07.018Z,9.53
2019-01-04T15:23:35.206Z,9.63
2019-01-04T15:26:03.513Z,10.60
2019-01-04T15:28:31.706Z,10.10
2019-01-04T15:30:59.930Z,11.63
2019-01-04T15:33:28.129Z,11.03
2019-01-04T15:35:56.418Z,9.63
2019-01-04T15:38:24.606Z,9.37
2019-01-04T15:40:52.914Z,10.00
2019-01-04T15:43:21.192Z,10.00
2019-01-04T15:45:49.469Z,8.70
2019-01-04T15:48:17.662Z,12.47
2019-01-04T15:50:45.877Z,8.77
2019-01-04T15:53:14.074Z,9.60
2019-01-04T15:55:42.358Z,9.20
2019-01-04T15:58:10.548Z,9.50
2019-01-04T16:00:38.842Z,8.97
2019-01-04T16:03:07.127Z,9.17
2019-01-04T16:05:35.410Z,8.70
2019-01-04T16:08:03.674Z,9.27
2019-01-04T16:10:32.609Z,8.73
2019-01-04T16:13:00.810Z,9.60
2019-01-04T16:15:29.096Z,9.23
2019-01-04T16:17:57.359Z,12.10
2019-01-04T16:20:25.631Z,10.47
2019-01-04T16:22:53.841Z,10.57
2019-01-04T16:25:22.038Z,8.93
2019-01-04T16:27:50.322Z,10.10
2019-01-04T16:30:18.510Z,10.30
2019-01-04T16:32:46.745Z,11.43
2019-01-04T16:35:15.022Z,10.10
2019-01-04T16:37:43.322Z,9.40
2019-01-04T16:40:11.949Z,10.27
2019-01-04T16:42:40.157Z,9.63
2019-01-04T16:45:08.418Z,8.20
2019-01-04T16:47:36.766Z,9.33
2019-01-04T16:50:05.774Z,8.83
2019-01-04T16:52:34.035Z,9.77
2019-01-04T16:55:02.330Z,9.20
2019-01-04T16:57:30.610Z,12.93
2019-01-04T16:59:58.905Z,11.13
2019-01-04T17:02:27.170Z,11.30
2019-01-04T17:04:55.393Z,9.60
2019-01-04T17:07:23.606Z,11.83
2019-01-04T17:09:51.969Z,11.90
2019-01-04T17:12:20.234Z,12.07
2019-01-04T17:14:48.461Z,12.70
2019-01-04T17:17:16.661Z,12.70
2019-01-04T17:19:44.858Z,11.00
2019-01-04T17:22:13.146Z,12.93
2019-01-04T17:24:41.345Z,10.43
2019-01-04T17:27:09.645Z,11.50
2019-01-04T17:29:37.990Z,12.73
2019-01-04T17:32:06.284Z,12.50
2019-01-04T17:34:34.553Z,11.33
2019-01-04T17:37:02.778Z,12.47
2019-01-04T17:39:31.053Z,12.97
2019-01-04T17:41:59.266Z,11.20
2019-01-04T17:44:27.466Z,13.17
2019-01-04T17:46:55.749Z,10.77
2019-01-04T17:49:24.199Z,11.50
2019-01-04T17:51:52.393Z,10.27
2019-01-04T17:54:20.609Z,11.40
2019-01-04T17:56:53.731Z,10.90
2019-01-04T17:59:21.994Z,10.10
2019-01-04T18:01:50.264Z,11.60
2019-01-04T18:04:18.557Z,10.97
2019-01-04T18:06:46.826Z,10.03
2019-01-04T18:09:15.118Z,11.67
2019-01-04T18:11:43.321Z,12.30
2019-01-04T18:14:11.533Z,9.87
2019-01-04T18:16:39.744Z,9.97
2019-01-04T18:19:09.569Z,11.30
2019-01-04T18:21:37.761Z,11.57
2019-01-04T18:24:05.979Z,8.10
2019-01-04T18:26:34.242Z,9.80
2019-01-04T18:29:02.450Z,9.50
2019-01-04T18:31:30.715Z,7.50
2019-01-04T18:33:59.073Z,8.60
2019-01-04T18:36:27.265Z,8.83
2019-01-04T18:38:55.476Z,8.93
2019-01-04T18:41:23.667Z,8.30
2019-01-04T18:43:51.958Z,8.03
2019-01-04T18:46:20.230Z,7.63
2019-01-04T18:48:48.525Z,7.23
2019-01-04T18:51:16.777Z,7.47
2019-01-04T18:53:46.370Z,6.20
2019-01-04T18:56:14.632Z,6.53
2019-01-04T18:58:42.923Z,7.13
2019-01-04T19:01:13.744Z,7.37
2019-01-04T19:03:41.130Z,7.03
2019-01-04T19:06:09.317Z,8.00
2019-01-04T19:08:37.532Z,8.77
2019-01-04T19:11:05.802Z,7.30
2019-01-04T19:13:34.098Z,16.17
2019-01-04T19:16:02.371Z,8.33
2019-01-04T19:18:30.654Z,7.60
2019-01-04T19:20:58.850Z,9.17
2019-01-04T19:23:27.129Z,8.97
2019-01-04T19:25:55.402Z,11.37
2019-01-04T19:28:23.662Z,9.10
2019-01-04T19:30:51.934Z,7.40
2019-01-04T19:33:20.193Z,9.27
2019-01-04T19:35:48.482Z,9.87
2019-01-04T19:38:16.758Z,8.30
2019-01-04T19:40:44.973Z,7.90
2019-01-04T19:43:13.162Z,8.60
2019-01-04T19:45:41.459Z,8.93
2019-01-04T19:48:09.653Z,9.13
2019-01-04T19:50:37.938Z,9.33
2019-01-04T19:53:06.203Z,9.27
2019-01-04T19:55:34.485Z,9.07
2019-01-04T19:58:02.670Z,8.83
2019-01-04T20:00:30.877Z,9.77
2019-01-04T20:02:59.074Z,10.20
2019-01-04T20:05:33.393Z,11.27
2019-01-04T20:08:04.850Z,10.10
2019-01-04T20:10:50.944Z,9.67
2019-01-04T20:13:37.302Z,9.80
2019-01-04T20:16:17.638Z,9.97
2019-01-04T20:18:47.480Z,10.27
2019-01-04T20:21:20.421Z,10.80
2019-01-04T20:23:59.046Z,10.17
2019-01-04T20:26:28.897Z,11.37
2019-01-04T20:28:58.739Z,11.00
2019-01-04T20:31:37.426Z,10.50
2019-01-04T20:34:07.329Z,10.40
2019-01-04T20:36:48.954Z,10.37
2019-01-04T20:39:24.790Z,11.27
2019-01-04T20:41:57.190Z,11.87
2019-01-04T20:44:36.026Z,11.10
2019-01-04T20:47:11.547Z,11.57
2019-01-04T20:49:41.449Z,11.40
2019-01-04T20:52:26.432Z,10.60
2019-01-04T20:55:05.526Z,11.90
2019-01-04T20:57:44.514Z,11.17
2019-01-04T21:00:14.417Z,11.17
2019-01-04T21:02:59.498Z,12.40
2019-01-04T21:05:37.994Z,12.00
2019-01-04T21:08:24.086Z,9.87
2019-01-04T21:11:08.775Z,11.93
2019-01-04T21:13:54.786Z,11.83
2019-01-04T21:16:30.783Z,10.73
2019-01-04T21:19:03.374Z,10.87
2019-01-04T21:21:36.033Z,11.07
2019-01-04T21:24:22.115Z,10.40
2019-01-04T21:27:08.135Z,10.60
2019-01-04T21:29:38.062Z,11.03
2019-01-04T21:32:25.806Z,11.43
2019-01-04T21:34:58.670Z,10.97
2019-01-04T21:37:46.534Z,10.97
2019-01-04T21:40:25.206Z,9.10
2019-01-04T21:43:11.563Z,10.50
2019-01-04T21:45:56.308Z,11.13
2019-01-04T21:48:26.218Z,11.80
2019-01-04T21:51:01.822Z,11.53
2019-01-04T21:53:40.618Z,20.50
2019-01-04T21:56:22.738Z,11.97
2019-01-04T21:59:08.782Z,11.60
2019-01-04T22:01:47.638Z,10.67
2019-01-04T22:04:33.894Z,11.60
2019-01-04T22:07:20.629Z,11.57
2019-01-04T22:10:06.623Z,12.30
2019-01-04T22:12:39.582Z,12.57
2019-01-04T22:15:12.490Z,9.33
2019-01-04T22:17:45.354Z,10.13
2019-01-04T22:20:18.202Z,11.27
2019-01-04T22:22:48.069Z,11.87
2019-01-04T22:25:27.041Z,10.60
2019-01-04T22:27:59.638Z,11.10
2019-01-04T22:30:35.306Z,11.37
2019-01-04T22:33:08.162Z,10.20
2019-01-04T22:35:43.737Z,10.90
2019-01-04T22:38:16.594Z,10.33
2019-01-04T22:41:02.570Z,10.10
2019-01-04T22:43:32.678Z,9.70
2019-01-04T22:46:14.614Z,10.27
2019-01-04T22:49:02.643Z,9.50
2019-01-04T22:51:48.910Z,9.20
2019-01-04T22:54:35.026Z,9.10
2019-01-04T22:57:04.974Z,8.80
2019-01-04T22:59:34.801Z,10.37
2019-01-04T23:02:20.878Z,10.03
2019-01-04T23:04:56.518Z,9.73
2019-01-04T23:07:29.127Z,8.90
2019-01-04T23:10:15.302Z,9.27
2019-01-04T23:12:54.047Z,9.07
2019-01-04T23:15:40.418Z,11.00
2019-01-04T23:18:28.424Z,9.30
2019-01-04T23:21:05.358Z,9.37
2019-01-04T23:23:51.314Z,8.60
2019-01-04T23:26:37.339Z,9.37
2019-01-04T23:29:10.202Z,9.83
2019-01-04T23:31:56.487Z,10.17
2019-01-04T23:34:28.989Z,9.67
2019-01-04T23:37:15.046Z,9.70
2019-01-04T23:40:02.654Z,9.27
2019-01-04T23:42:48.534Z,8.67
2019-01-04T23:45:30.166Z,9.23
2019-01-04T23:48:09.145Z,9.03
2019-01-04T23:50:51.047Z,10.13
2019-01-04T23:53:43.007Z,8.30
2019-01-04T23:56:28.961Z,9.17
2019-01-04T23:59:10.664Z,8.23
